X  Fermer Données météorologiques d'aviation de Metar     LGRX Patras Araxos Agamemnon Airport
Température
23°C Température
16°C Point de rosée
65% Humidité



Vent
3 MPH
5 KM/H
1 M/S
3 KTS



Calme
N
Conditions actuelles

Partiellement nuageux Partiellement nuageux
Pression 1010.84 (hPa) - 29.85 (inHg)
Visibilité 6 (mile) - 9.7 (km)
Aéroport
Code de l'aéroport LGRX

Emplacement: Patras Araxos Agamemnon Airport
Distance: 108 (mi)

Metar:
LGRX 201850Z VRB03KT 9999 FEW035 23/16 Q1011 RMK SCT200 BLU

Temps: 20-05-2024 21:50 EEST